Airport ID:KFOT
Update Time (UTC):17 AUG 18 22:54
Wind Speed (Knots):12
Wind Direction (Magnetic):280
Temperature (°C):19
Dew Point (°C):13
Humidity (%):71
Altimeter (inHg):30.11
Density Altitude (Feet):
Visibility (Miles):10
Clouds (Hundreds of feet):CLR
Present Weather:
METAR:METAR KFOT 172250Z AUTO 30011KT 10SM CLR 18/13 A3011 RMK AO1

The data displayed is for advisory purposes only and is not to be used for flight planning or operations.

This page is not automatically refreshed. Reload the page to see current data.